Terminal Aerodrome Forecast
Issued by NWS

Home | Current Version | Previous Version | Graphics & Text | Print | Product List | Glossary On
Versions: 1 2 3 4 5 6 7 8 9 10 11 12 13 14 15 16 17 18 19 20 21
000
FTUS43 KABR 261124
TAFPIR
TAF
KPIR 261124Z 2612/2712 VRB05KT P6SM OVC007
     FM261700 VRB05KT P6SM OVC015
     FM262100 VRB05KT P6SM OVC035
     FM270500 VRB04KT P6SM OVC060=

USA.gov is the U.S. government's official web portal to all federal, state and local government web resources and services.